Terminal Aerodrome Forecast
Issued by NWS

Home | Current Version | Previous Version | Text Only | Print | Product List | Glossary On
Versions: 1 2 3 4 5 6 7 8 9 10 11 12 13 14 15 16 17 18 19
753
FTUS41 KILN 272335
TAFLUK
TAF
KLUK 272335Z 2800/2824 24008KT P6SM SCT035 BKN250
     FM280600 00000KT 3SM BR SCT250
      TEMPO 2807/2809 1SM BR
     FM281000 27003KT P6SM BKN150
     FM281500 16007KT P6SM FEW035 BKN120=

USA.gov is the U.S. government's official web portal to all federal, state and local government web resources and services.